createdAt,value
2023-03-14T00:03:52.221Z,93018.00
2023-03-14T00:07:52.393Z,93009.00
2023-03-14T00:11:52.512Z,93014.00
2023-03-14T00:15:52.711Z,92997.00
2023-03-14T00:19:52.793Z,92999.00
2023-03-14T00:23:52.899Z,92991.00
2023-03-14T00:27:52.973Z,92991.00
2023-03-14T00:31:53.069Z,92995.00
2023-03-14T00:35:53.142Z,92995.00
2023-03-14T00:39:53.207Z,92989.00
2023-03-14T00:43:53.382Z,92981.00
2023-03-14T00:47:53.552Z,92991.00
2023-03-14T00:51:53.731Z,92983.00
2023-03-14T00:55:53.888Z,92987.00
2023-03-14T00:59:53.983Z,92993.00
2023-03-14T01:03:54.140Z,92979.00
2023-03-14T01:07:54.265Z,92979.00
2023-03-14T01:11:54.357Z,92987.00
2023-03-14T01:15:54.503Z,92985.00
2023-03-14T01:19:54.556Z,92973.00
2023-03-14T01:23:54.622Z,92962.00
2023-03-14T01:27:54.723Z,92960.00
2023-03-14T01:31:54.864Z,92952.00
2023-03-14T01:35:55.012Z,92948.00
2023-03-14T01:39:54.953Z,92940.00
2023-03-14T01:43:55.025Z,92952.00
2023-03-14T01:47:55.125Z,92952.00
2023-03-14T01:51:55.251Z,92942.00
2023-03-14T01:55:55.295Z,92934.00
2023-03-14T01:59:55.422Z,92930.00
2023-03-14T02:03:55.516Z,92928.00
2023-03-14T02:07:55.621Z,92932.00
2023-03-14T02:11:55.641Z,92938.00
2023-03-14T02:15:55.684Z,92952.00
2023-03-14T02:19:55.822Z,92940.00
2023-03-14T02:23:55.824Z,92936.00
2023-03-14T02:27:55.859Z,92944.00
2023-03-14T02:31:55.923Z,92948.00
2023-03-14T02:35:55.999Z,92960.00
2023-03-14T02:39:56.028Z,92965.00
2023-03-14T02:43:56.106Z,92965.00
2023-03-14T02:47:56.151Z,92975.00
2023-03-14T02:51:56.171Z,92973.00
2023-03-14T02:55:56.177Z,92985.00
2023-03-14T02:59:56.237Z,92995.00
2023-03-14T03:03:56.252Z,92997.00
2023-03-14T03:07:56.289Z,93003.00
2023-03-14T03:11:56.271Z,93005.00
2023-03-14T03:15:56.262Z,93001.00
2023-03-14T03:19:56.298Z,93005.00
2023-03-14T03:23:56.318Z,93009.00
2023-03-14T03:27:56.332Z,93011.00
2023-03-14T03:31:56.378Z,93026.00
2023-03-14T03:35:56.656Z,93040.00
2023-03-14T03:39:56.427Z,93036.00
2023-03-14T03:43:56.448Z,93036.00
2023-03-14T03:47:56.482Z,93044.00
2023-03-14T03:51:56.539Z,93036.00
2023-03-14T03:55:56.652Z,93032.00
2023-03-14T03:59:56.766Z,93026.00
2023-03-14T04:03:56.884Z,93014.00
2023-03-14T04:07:56.897Z,93014.00
2023-03-14T04:11:57.133Z,93016.00
2023-03-14T04:15:57.069Z,93036.00
2023-03-14T04:19:57.124Z,93042.00
2023-03-14T04:23:57.045Z,93048.00
2023-03-14T04:27:57.160Z,93046.00
2023-03-14T04:31:57.123Z,93052.00
2023-03-14T04:35:57.168Z,93032.00
2023-03-14T04:39:57.195Z,93030.00
2023-03-14T04:43:57.237Z,93026.00
2023-03-14T04:47:57.312Z,93016.00
2023-03-14T04:51:57.326Z,93009.00
2023-03-14T04:55:57.461Z,93005.00
2023-03-14T04:59:57.591Z,92999.00
2023-03-14T05:03:57.647Z,92993.00
2023-03-14T05:07:57.721Z,92995.00
2023-03-14T05:11:57.790Z,92985.00
2023-03-14T05:15:57.938Z,92981.00
2023-03-14T05:19:58.012Z,92985.00
2023-03-14T05:23:58.073Z,92989.00
2023-03-14T05:27:58.147Z,92979.00
2023-03-14T05:31:58.286Z,92975.00
2023-03-14T05:35:58.321Z,92975.00
2023-03-14T05:39:58.363Z,92969.00
2023-03-14T05:43:58.353Z,92964.00
2023-03-14T05:47:58.428Z,92954.00
2023-03-14T05:51:58.450Z,92940.00
2023-03-14T05:55:58.501Z,92934.00
2023-03-14T05:59:58.704Z,92926.00
2023-03-14T06:03:58.517Z,92918.00
2023-03-14T06:07:58.611Z,92909.00
2023-03-14T06:16:18.428Z,92913.00
2023-03-14T06:28:57.691Z,92932.00
2023-03-14T06:32:57.375Z,92934.00
2023-03-14T06:36:57.317Z,92934.00
2023-03-14T06:40:57.432Z,92932.00
2023-03-14T06:44:57.654Z,92942.00
2023-03-14T06:48:57.416Z,92956.00
2023-03-14T06:52:57.434Z,92952.00
2023-03-14T06:56:57.348Z,92952.00
2023-03-14T07:00:57.318Z,92954.00
2023-03-14T07:04:57.275Z,92954.00
2023-03-14T07:08:57.295Z,92950.00
2023-03-14T07:25:54.981Z,92938.00
2023-03-14T07:30:09.885Z,92946.00
2023-03-14T07:33:54.701Z,92950.00
2023-03-14T07:37:54.959Z,92952.00
2023-03-14T07:41:54.808Z,92956.00
2023-03-14T07:45:58.950Z,92958.00
2023-03-14T07:49:55.409Z,92954.00
2023-03-14T07:53:54.522Z,92952.00
2023-03-14T07:57:54.592Z,92950.00
2023-03-14T08:01:54.583Z,92948.00
2023-03-14T08:05:54.923Z,92952.00
2023-03-14T08:09:54.478Z,92952.00
2023-03-14T08:13:54.513Z,92952.00
2023-03-14T08:17:54.433Z,92950.00
2023-03-14T08:21:54.435Z,92956.00
2023-03-14T08:25:54.475Z,92964.00
2023-03-14T08:29:54.442Z,92964.00
2023-03-14T08:33:54.320Z,92960.00
2023-03-14T08:37:54.259Z,92960.00
2023-03-14T08:41:54.235Z,92962.00
2023-03-14T08:45:54.313Z,92958.00
2023-03-14T08:49:54.465Z,92960.00
2023-03-14T08:53:54.254Z,92969.00
2023-03-14T08:57:54.216Z,92979.00
2023-03-14T09:01:54.172Z,92987.00
2023-03-14T09:05:54.145Z,92985.00
2023-03-14T09:09:54.116Z,92973.00
2023-03-14T09:13:54.070Z,92964.00
2023-03-14T09:17:54.306Z,92979.00
2023-03-14T09:21:54.990Z,92979.00
2023-03-14T09:25:54.991Z,92985.00
2023-03-14T09:29:54.943Z,92991.00
2023-03-14T09:33:55.059Z,92993.00
2023-03-14T09:37:55.495Z,92999.00
2023-03-14T09:41:55.417Z,92999.00
2023-03-14T09:45:55.534Z,93001.00
2023-03-14T09:49:56.019Z,93001.00
2023-03-14T09:53:55.480Z,93003.00
2023-03-14T09:57:55.514Z,93011.00
2023-03-14T10:01:55.562Z,93012.00
2023-03-14T10:05:55.498Z,93001.00
2023-03-14T10:09:55.360Z,92997.00
2023-03-14T10:13:55.280Z,92989.00
2023-03-14T10:17:55.251Z,92979.00
2023-03-14T10:21:55.571Z,92975.00
2023-03-14T10:25:55.335Z,92969.00
2023-03-14T10:29:59.003Z,92975.00
2023-03-14T10:33:56.054Z,92981.00
2023-03-14T10:37:55.543Z,92979.00
2023-03-14T10:41:55.699Z,92975.00
2023-03-14T10:45:55.426Z,92977.00
2023-03-14T10:49:55.547Z,92973.00
2023-03-14T10:53:55.332Z,92967.00
2023-03-14T10:57:55.298Z,92965.00
2023-03-14T11:01:55.542Z,92962.00
2023-03-14T11:05:55.645Z,92962.00
2023-03-14T11:09:55.886Z,92958.00
2023-03-14T11:13:56.504Z,92950.00
2023-03-14T11:17:56.251Z,92948.00
2023-03-14T11:21:56.641Z,92940.00
2023-03-14T11:25:57.176Z,92932.00
2023-03-14T11:29:56.998Z,92930.00
2023-03-14T11:33:56.930Z,92930.00
2023-03-14T11:37:57.028Z,92940.00
2023-03-14T11:41:57.181Z,92928.00
2023-03-14T11:45:58.907Z,92917.00
2023-03-14T11:49:57.317Z,92905.00
2023-03-14T11:53:57.374Z,92901.00
2023-03-14T11:57:57.479Z,92903.00
2023-03-14T12:01:58.041Z,92903.00
2023-03-14T12:05:57.729Z,92901.00
2023-03-14T12:09:57.797Z,92907.00
2023-03-14T12:13:57.781Z,92915.00
2023-03-14T12:22:17.659Z,92926.00
2023-03-14T12:26:19.410Z,92926.00
2023-03-14T12:30:17.111Z,92925.00
2023-03-14T12:34:17.012Z,92923.00
2023-03-14T12:38:16.971Z,92911.00
2023-03-14T12:42:16.896Z,92899.00
2023-03-14T12:46:17.093Z,92897.00
2023-03-14T12:50:16.859Z,92893.00
2023-03-14T12:54:16.816Z,92885.00
2023-03-14T12:58:16.759Z,92885.00
2023-03-14T13:02:16.763Z,92881.00
2023-03-14T13:06:16.755Z,92883.00
2023-03-14T13:10:16.721Z,92881.00
2023-03-14T13:14:16.996Z,92883.00
